Terminal Aerodrome Forecast
Issued by NWS Charleston, WV

Current Version | Previous Version | Text Only | Print | Product List | Glossary Off
Versions: 1 2 3 4 5 6 7 8 9 10 11 12 13 14 15 16 17 18 19 20 21 22 23 24 25 26 27 28 29 30 31 32 33 34 35 36

189
FTUS41 KRLX 251742 AAB
TAFPKB
TAF AMD
KPKB 251742Z 2518/2618 26009G15KT P6SM SCT050 BKN200
     FM252300 25008KT P6SM SCT250
     FM260000 24004KT P6SM FEW250
     FM260600 30003KT P6SM SCT150
     FM260800 00000KT 6SM BR FEW002
     FM260900 00000KT 5SM BR FEW002
     FM261200 00000KT P6SM FEW002
     FM261300 00000KT P6SM FEW200=

USA.gov is the U.S. government's official web portal to all federal, state and local government web resources and services.